Time;durP1;ratioP1;P1;durP2;ratioP2;P2;SDS_P1;SDS_P2;PMS_P1;PMS_P2;Temp;Humidity;BMP_temperature;BMP_pressure;BME280_temperature;BME280_humidity;BME280_pressure;Samples;Min_cycle;Max_cycle;Signal;HPM_P1;HPM_P2
2023/05/18 00:01:39;;;;;;;8.15;2.55;;;;;;;5.04;83.11;102096.00;4946642;28;20077;-80
2023/05/18 00:04:07;;;;;;;6.50;2.33;;;;;;;5.01;83.37;102093.31;4905563;28;20048;-82
2023/05/18 00:06:33;;;;;;;11.75;3.17;;;;;;;5.00;83.30;102092.41;4933249;29;20051;-80
2023/05/18 00:09:00;;;;;;;4.25;3.50;;;;;;;5.00;84.04;102096.72;4938051;29;20055;-81
2023/05/18 00:11:26;;;;;;;11.50;3.45;;;;;;;4.96;84.10;102088.81;4936946;28;20403;-81
2023/05/18 00:13:53;;;;;;;6.43;2.55;;;;;;;4.91;84.75;102087.75;4928205;29;20931;-82
2023/05/18 00:16:19;;;;;;;6.28;3.00;;;;;;;4.90;85.14;102085.09;4929266;28;20054;-82
2023/05/18 00:18:46;;;;;;;8.57;2.92;;;;;;;4.86;85.58;102088.41;4927689;29;20538;-80
2023/05/18 00:21:15;;;;;;;8.80;3.00;;;;;;;4.81;85.87;102090.84;4918011;28;20046;-81
2023/05/18 00:23:48;;;;;;;8.00;2.50;;;;;;;4.77;85.84;102095.03;4929131;29;20039;-82
2023/05/18 00:26:14;;;;;;;8.35;2.88;;;;;;;4.78;86.16;102095.91;4934515;28;20055;-86
2023/05/18 00:28:41;;;;;;;7.57;3.28;;;;;;;4.78;86.55;102103.69;4940027;29;20063;-81
2023/05/18 00:31:07;;;;;;;9.82;3.28;;;;;;;4.77;85.93;102102.81;4926286;28;20042;-81
2023/05/18 00:33:33;;;;;;;5.18;2.35;;;;;;;4.76;85.36;102106.22;4914825;29;20047;-81
2023/05/18 00:36:00;;;;;;;4.60;4.07;;;;;;;4.73;86.02;102105.22;4926325;29;20127;-81
2023/05/18 00:38:26;;;;;;;11.77;3.92;;;;;;;4.67;86.20;102103.28;4936079;28;20129;-83
2023/05/18 00:40:53;;;;;;;9.43;2.67;;;;;;;4.65;86.60;102099.72;4936805;29;20040;-81
2023/05/18 00:43:20;;;;;;;6.53;3.08;;;;;;;4.66;87.12;102103.22;4934046;28;20042;-86
2023/05/18 00:45:46;;;;;;;11.73;3.10;;;;;;;4.63;87.88;102096.22;4916783;29;20047;-82
2023/05/18 00:48:12;;;;;;;9.98;2.63;;;;;;;4.61;88.13;102101.31;4937182;28;20043;-81
2023/05/18 00:50:41;;;;;;;6.40;3.25;;;;;;;4.58;88.53;102097.75;4938169;29;20048;-81
2023/05/18 00:53:09;;;;;;;13.77;3.67;;;;;;;4.55;88.77;102102.78;4932067;28;20051;-87
2023/05/18 00:55:36;;;;;;;12.68;5.03;;;;;;;4.49;89.63;102108.63;4941951;29;20182;-82
2023/05/18 00:58:04;;;;;;;6.90;3.30;;;;;;;4.45;90.41;102107.63;4930159;29;20047;-84
2023/05/18 01:00:32;;;;;;;8.05;3.80;;;;;;;4.41;90.91;102105.72;4928961;28;20478;-84
2023/05/18 01:02:59;;;;;;;8.98;3.35;;;;;;;4.44;92.01;102108.44;4932121;29;20047;-85
2023/05/18 01:05:25;;;;;;;8.00;2.85;;;;;;;4.39;91.82;102103.91;4930026;28;20046;-81
2023/05/18 01:07:51;;;;;;;10.38;3.28;;;;;;;4.32;92.26;102120.94;4929029;29;20032;-81
2023/05/18 01:10:19;;;;;;;10.05;3.67;;;;;;;4.28;92.57;102117.31;4930660;28;20063;-81
2023/05/18 01:13:31;;;;;;;10.05;3.00;;;;;;;4.22;93.05;102114.47;4933246;29;20042;-81
2023/05/18 01:16:06;;;;;;;6.15;3.33;;;;;;;4.14;93.03;102113.28;4891153;29;20453;-83
2023/05/18 01:18:47;;;;;;;8.45;3.22;;;;;;;4.07;93.36;102114.75;4913034;29;20044;-83
2023/05/18 01:21:42;;;;;;;6.25;3.08;;;;;;;4.04;93.92;102117.22;4931330;28;20039;-82
2023/05/18 01:24:27;;;;;;;7.18;2.90;;;;;;;4.04;94.31;102116.31;4915270;28;20051;-81
2023/05/18 01:26:58;;;;;;;3.83;2.30;;;;;;;4.00;94.11;102111.84;4929149;28;20043;-81
2023/05/18 01:29:26;;;;;;;8.15;3.40;;;;;;;3.97;94.00;102112.59;4942106;28;20054;-82
2023/05/18 01:31:53;;;;;;;9.30;3.28;;;;;;;3.93;94.46;102115.88;4939837;29;20048;-81
2023/05/18 01:34:19;;;;;;;6.50;2.53;;;;;;;3.94;94.90;102115.06;4938478;28;20046;-81
2023/05/18 01:36:46;;;;;;;13.50;4.20;;;;;;;3.90;95.02;102118.34;4919068;29;20408;-81
2023/05/18 01:39:12;;;;;;;5.35;3.33;;;;;;;3.84;95.19;102113.78;4938975;28;20039;-84
2023/05/18 01:41:48;;;;;;;11.88;3.20;;;;;;;3.85;95.51;102117.28;4933928;29;20062;-81
2023/05/18 01:44:31;;;;;;;15.73;4.03;;;;;;;3.85;95.98;102112.97;4938856;28;20035;-81
2023/05/18 01:47:10;;;;;;;4.20;2.88;;;;;;;3.82;95.78;102120.63;4934278;29;20071;-82
2023/05/18 01:50:02;;;;;;;7.68;2.53;;;;;;;3.84;96.52;102129.31;4944864;28;20062;-80
2023/05/18 01:52:47;;;;;;;10.18;3.45;;;;;;;3.81;96.89;102121.44;4922813;28;20458;-81
2023/05/18 01:55:17;;;;;;;8.85;3.63;;;;;;;3.81;97.03;102124.00;4936052;28;20044;-81
2023/05/18 01:57:48;;;;;;;6.10;3.38;;;;;;;3.78;97.21;102121.28;4947815;28;20102;-80
2023/05/18 02:00:17;;;;;;;11.10;3.83;;;;;;;3.73;96.71;102117.59;4918962;28;20066;-86
2023/05/18 02:02:44;;;;;;;6.40;2.95;;;;;;;3.73;97.60;102127.97;4940880;29;20071;-81
2023/05/18 02:05:12;;;;;;;7.60;2.35;;;;;;;3.73;97.67;102120.19;4939992;28;20462;-81
2023/05/18 02:07:39;;;;;;;4.93;2.42;;;;;;;3.71;97.84;102127.91;4936958;29;20058;-81
2023/05/18 02:10:07;;;;;;;9.88;3.20;;;;;;;3.71;97.91;102125.31;4938829;28;20047;-84
2023/05/18 02:12:33;;;;;;;7.28;3.63;;;;;;;3.69;97.48;102120.88;4922855;29;20367;-86
2023/05/18 02:15:04;;;;;;;7.35;3.25;;;;;;;3.63;97.95;102126.69;4935591;29;20510;-85
2023/05/18 02:17:35;;;;;;;8.30;2.70;;;;;;;3.60;98.05;102122.28;4952485;28;20537;-82
2023/05/18 02:20:05;;;;;;;6.53;2.63;;;;;;;3.60;98.04;102118.81;4939234;29;20050;-86
2023/05/18 02:22:32;;;;;;;10.38;3.22;;;;;;;3.56;98.42;102110.00;4931295;28;20505;-85
2023/05/18 02:24:58;;;;;;;5.60;3.08;;;;;;;3.52;98.78;102117.56;4939452;28;20046;-80
2023/05/18 02:27:25;;;;;;;9.57;3.00;;;;;;;3.49;98.91;102120.91;4931343;28;20054;-82
2023/05/18 02:29:52;;;;;;;6.15;4.60;;;;;;;3.50;99.20;102116.63;4928410;29;20205;-80
2023/05/18 02:32:18;;;;;;;9.93;3.63;;;;;;;3.47;99.27;102112.22;4921315;29;20054;-81
2023/05/18 02:34:45;;;;;;;11.43;3.72;;;;;;;3.49;99.25;102110.56;4930468;29;20058;-79
2023/05/18 02:37:12;;;;;;;6.47;2.88;;;;;;;3.46;99.73;102113.03;4935215;29;20493;-80
2023/05/18 02:39:40;;;;;;;5.03;2.97;;;;;;;3.45;99.67;102116.41;4932767;28;20043;-80
2023/05/18 02:42:07;;;;;;;9.88;3.60;;;;;;;3.47;99.98;102122.56;4934271;29;20039;-80
2023/05/18 02:44:33;;;;;;;9.57;2.95;;;;;;;3.45;99.23;102122.47;4933424;28;20081;-84
2023/05/18 02:47:00;;;;;;;9.02;3.45;;;;;;;3.42;99.07;102129.25;4933946;29;20096;-80
2023/05/18 02:49:26;;;;;;;6.85;3.08;;;;;;;3.38;100.00;102120.44;4937872;28;20101;-80
2023/05/18 02:51:53;;;;;;;4.25;2.85;;;;;;;3.36;100.00;102122.06;4931300;28;20070;-80
2023/05/18 02:54:20;;;;;;;4.60;2.70;;;;;;;3.35;100.00;102124.59;4930845;28;20054;-84
2023/05/18 02:56:46;;;;;;;6.85;2.80;;;;;;;3.33;100.00;102132.28;4933203;29;20043;-83
2023/05/18 02:59:14;;;;;;;6.85;3.05;;;;;;;3.33;100.00;102124.53;4955801;28;20054;-80
2023/05/18 03:01:40;;;;;;;3.55;2.47;;;;;;;3.31;100.00;102124.47;4932391;29;20058;-84
2023/05/18 03:04:07;;;;;;;6.95;2.65;;;;;;;3.31;100.00;102126.16;4928379;28;20474;-84
2023/05/18 03:06:35;;;;;;;4.47;3.38;;;;;;;3.31;100.00;102128.75;4931620;29;20074;-86
2023/05/18 03:09:01;;;;;;;7.35;2.78;;;;;;;3.28;100.00;102126.03;4930048;29;20090;-80
2023/05/18 03:11:28;;;;;;;8.65;3.08;;;;;;;3.26;100.00;102125.97;4933413;28;20063;-84
2023/05/18 03:13:54;;;;;;;4.93;2.22;;;;;;;3.26;100.00;102127.66;4939555;29;20035;-80
2023/05/18 03:16:26;;;;;;;10.88;4.07;;;;;;;3.23;100.00;102136.16;4956278;28;20057;-81
2023/05/18 03:18:53;;;;;;;15.77;4.32;;;;;;;3.25;100.00;102136.25;4932732;29;20086;-81
2023/05/18 03:21:20;;;;;;;7.30;3.38;;;;;;;3.21;100.00;102135.22;4930658;28;20053;-80
2023/05/18 03:23:47;;;;;;;10.95;2.97;;;;;;;3.21;100.00;102143.00;4930663;28;20043;-80
2023/05/18 03:26:15;;;;;;;7.03;3.13;;;;;;;3.22;100.00;102146.44;4959978;28;20046;-81
2023/05/18 03:28:42;;;;;;;3.08;2.78;;;;;;;3.20;100.00;102141.22;4908804;28;1078533;-80
2023/05/18 03:31:08;;;;;;;8.88;4.10;;;;;;;3.17;100.00;102141.09;4897451;29;20079;-80
2023/05/18 03:33:35;;;;;;;6.43;3.35;;;;;;;3.16;100.00;102136.72;4913973;29;20122;-84
2023/05/18 03:36:04;;;;;;;12.18;3.65;;;;;;;3.21;100.00;102134.34;4932903;29;20063;-86
2023/05/18 03:38:30;;;;;;;3.67;3.00;;;;;;;3.24;100.00;102143.13;4914174;29;20048;-83
2023/05/18 03:40:57;;;;;;;7.63;3.47;;;;;;;3.23;100.00;102133.56;4893138;29;20043;-86
2023/05/18 03:43:24;;;;;;;12.75;3.90;;;;;;;3.28;100.00;102139.84;4908525;29;20075;-81
2023/05/18 03:45:51;;;;;;;3.55;3.03;;;;;;;3.27;100.00;102143.28;4915178;29;20059;-81
2023/05/18 03:48:18;;;;;;;8.52;3.55;;;;;;;3.25;100.00;102142.31;4909847;29;20043;-82
2023/05/18 03:50:44;;;;;;;10.45;3.25;;;;;;;3.29;100.00;102136.44;4910944;29;20044;-82
2023/05/18 03:53:11;;;;;;;9.30;3.83;;;;;;;3.33;100.00;102149.53;4891857;29;20044;-80
2023/05/18 03:55:38;;;;;;;5.82;3.28;;;;;;;3.31;100.00;102144.28;4911305;29;20050;-82
2023/05/18 03:58:04;;;;;;;11.57;5.32;;;;;;;3.34;100.00;102146.13;4909549;29;20050;-81
2023/05/18 04:00:31;;;;;;;5.78;3.00;;;;;;;3.35;100.00;102142.72;4911347;29;20043;-81
2023/05/18 04:02:57;;;;;;;6.93;3.55;;;;;;;3.38;100.00;102146.34;4908963;29;20067;-82
2023/05/18 04:05:24;;;;;;;4.47;3.13;;;;;;;3.37;100.00;102147.16;4909442;29;20054;-80
2023/05/18 04:07:51;;;;;;;4.82;3.20;;;;;;;3.38;100.00;102154.09;4909197;29;20471;-80
2023/05/18 04:10:18;;;;;;;6.97;3.65;;;;;;;3.42;100.00;102152.53;4907451;29;20051;-80
2023/05/18 04:12:44;;;;;;;5.15;3.17;;;;;;;3.48;100.00;102150.19;4905569;29;20060;-82
2023/05/18 04:15:13;;;;;;;7.07;3.30;;;;;;;3.51;100.00;102147.75;4911600;29;20047;-85
2023/05/18 04:17:42;;;;;;;10.35;3.88;;;;;;;3.57;100.00;102155.81;4912502;29;20124;-81
2023/05/18 04:20:11;;;;;;;11.45;5.43;;;;;;;3.63;100.00;102150.88;4898014;29;20468;-83
2023/05/18 04:22:47;;;;;;;10.18;4.00;;;;;;;3.68;100.00;102156.28;4912389;29;20071;-81
2023/05/18 04:25:17;;;;;;;3.92;2.85;;;;;;;3.76;100.00;102160.06;4905539;29;20199;-81
2023/05/18 04:27:44;;;;;;;6.85;4.50;;;;;;;3.81;100.00;102162.88;4904173;29;20455;-81
2023/05/18 04:30:12;;;;;;;12.05;3.50;;;;;;;3.87;99.93;102165.72;4923864;29;20048;-81
2023/05/18 04:32:41;;;;;;;8.68;3.58;;;;;;;3.94;99.77;102165.16;4914576;29;20047;-80
2023/05/18 04:35:09;;;;;;;15.75;4.22;;;;;;;4.00;99.33;102164.53;4901947;29;20455;-82
2023/05/18 04:37:39;;;;;;;4.90;2.97;;;;;;;4.07;98.75;102169.16;4928699;29;20048;-81
2023/05/18 04:40:11;;;;;;;9.20;3.42;;;;;;;4.14;98.93;102166.00;4916874;29;20488;-90
2023/05/18 04:42:43;;;;;;;8.23;3.38;;;;;;;4.21;98.26;102168.84;4936931;29;20048;-82
2023/05/18 04:45:15;;;;;;;6.93;3.28;;;;;;;4.26;98.14;102175.09;4900982;29;20071;-82
2023/05/18 04:47:45;;;;;;;7.07;2.88;;;;;;;4.34;97.60;102172.84;4919774;29;20048;-86
2023/05/18 04:50:16;;;;;;;8.95;3.17;;;;;;;4.45;96.86;102168.97;4927995;29;20059;-84
2023/05/18 04:52:47;;;;;;;7.03;3.22;;;;;;;4.53;95.95;102171.88;4926336;29;20044;-82
2023/05/18 04:55:18;;;;;;;4.68;2.13;;;;;;;4.59;95.09;102173.00;4919989;29;20931;-81
2023/05/18 04:57:46;;;;;;;6.22;3.17;;;;;;;4.68;94.86;102166.41;4928370;29;20454;-82
2023/05/18 05:00:14;;;;;;;5.10;2.95;;;;;;;4.74;94.33;102171.84;4926868;29;20071;-83
2023/05/18 05:02:41;;;;;;;9.73;3.20;;;;;;;4.83;93.80;102169.63;4932791;29;20074;-80
2023/05/18 05:05:08;;;;;;;5.40;3.15;;;;;;;4.92;93.64;102161.31;4915484;29;20143;-84
2023/05/18 05:07:34;;;;;;;5.68;3.00;;;;;;;5.03;93.30;102166.91;4928384;29;20057;-84
2023/05/18 05:10:01;;;;;;;11.27;2.65;;;;;;;5.07;92.93;102171.38;4925716;29;20051;-84
2023/05/18 05:12:27;;;;;;;7.63;3.50;;;;;;;5.12;92.18;102167.25;4930856;29;20045;-89
2023/05/18 05:14:54;;;;;;;3.70;2.80;;;;;;;5.18;92.04;102175.28;4924909;29;20099;-80
2023/05/18 05:17:22;;;;;;;8.85;3.85;;;;;;;5.24;91.89;102183.31;4930020;29;20106;-83
2023/05/18 05:19:48;;;;;;;5.97;3.17;;;;;;;5.27;90.45;102179.94;4911783;29;20146;-82
2023/05/18 05:22:16;;;;;;;8.80;2.78;;;;;;;5.32;90.58;102185.28;4917201;29;20431;-81
2023/05/18 05:24:43;;;;;;;5.78;2.47;;;;;;;5.40;90.14;102183.88;4928100;29;20036;-80
2023/05/18 05:27:10;;;;;;;7.25;2.10;;;;;;;5.46;90.17;102186.69;4918429;29;20438;-81
2023/05/18 05:29:36;;;;;;;8.90;2.50;;;;;;;5.49;89.38;102184.22;4916138;28;20070;-80
2023/05/18 05:32:03;;;;;;;5.07;2.10;;;;;;;5.53;89.04;102180.00;4927903;29;20498;-80
2023/05/18 05:34:30;;;;;;;5.93;2.30;;;;;;;5.57;88.46;102185.38;4933407;28;20079;-81
2023/05/18 05:36:57;;;;;;;8.27;2.75;;;;;;;5.61;88.75;102183.78;4943256;29;20047;-81
2023/05/18 05:39:23;;;;;;;8.60;3.75;;;;;;;5.71;88.28;102188.47;4932816;29;20478;-81
2023/05/18 05:41:50;;;;;;;6.70;1.95;;;;;;;5.79;87.23;102184.44;4916363;29;20044;-81
2023/05/18 05:44:16;;;;;;;9.23;2.58;;;;;;;5.88;87.08;102191.66;4920180;28;20051;-81
2023/05/18 05:46:43;;;;;;;7.65;2.83;;;;;;;5.95;85.68;102185.84;4921898;29;20050;-82
2023/05/18 05:49:09;;;;;;;7.95;2.30;;;;;;;6.03;84.36;102190.47;4924648;28;20074;-83
2023/05/18 05:51:36;;;;;;;5.80;2.97;;;;;;;6.09;83.35;102194.16;4929975;29;20141;-82
2023/05/18 05:54:04;;;;;;;3.88;1.88;;;;;;;6.12;83.35;102195.97;4941429;29;20075;-81
2023/05/18 05:56:30;;;;;;;4.00;1.83;;;;;;;6.19;82.51;102197.06;4927468;29;20064;-83
2023/05/18 05:58:57;;;;;;;10.75;1.80;;;;;;;6.26;81.83;102204.25;4935512;29;20047;-80
2023/05/18 06:01:23;;;;;;;10.13;2.15;;;;;;;6.32;81.63;102206.19;4941441;28;20052;-81
2023/05/18 06:03:50;;;;;;;5.72;2.15;;;;;;;6.34;80.69;102207.13;4938627;29;20050;-84
2023/05/18 06:06:17;;;;;;;6.90;1.90;;;;;;;6.43;79.96;102207.44;4937360;28;21242;-80
2023/05/18 06:08:44;;;;;;;5.47;2.00;;;;;;;6.50;80.53;102205.91;4938157;29;20127;-81
2023/05/18 06:11:11;;;;;;;17.65;4.20;;;;;;;6.54;79.19;102203.44;4936256;28;20731;-81
2023/05/18 06:13:38;;;;;;;6.05;1.77;;;;;;;6.57;79.57;102200.94;4933498;29;20194;-81
2023/05/18 06:16:05;;;;;;;3.10;1.70;;;;;;;6.64;79.31;102208.97;4915827;29;20648;-81
2023/05/18 06:18:32;;;;;;;5.93;2.30;;;;;;;6.73;78.15;102204.94;4933680;29;20043;-81
2023/05/18 06:20:58;;;;;;;8.90;1.83;;;;;;;6.76;78.17;102217.16;4935682;29;20051;-83
2023/05/18 06:23:25;;;;;;;3.72;1.85;;;;;;;6.79;77.52;102209.44;4939392;28;20136;-81
2023/05/18 06:25:52;;;;;;;7.00;2.33;;;;;;;6.86;77.46;102216.63;4939668;29;20055;-86
2023/05/18 06:28:18;;;;;;;5.15;1.88;;;;;;;6.91;76.38;102209.84;4930097;29;20106;-79
2023/05/18 06:30:45;;;;;;;7.32;2.30;;;;;;;6.92;76.39;102208.09;4907784;29;20480;-82
2023/05/18 06:33:12;;;;;;;7.50;2.15;;;;;;;6.97;76.41;102213.47;4893352;29;20494;-80
2023/05/18 06:35:39;;;;;;;13.38;2.20;;;;;;;7.02;75.84;102217.09;4914882;29;20047;-80
2023/05/18 06:38:06;;;;;;;8.40;2.28;;;;;;;7.04;76.00;102213.72;4889991;29;20551;-89
2023/05/18 06:40:35;;;;;;;3.20;1.48;;;;;;;7.14;75.61;102214.84;4913749;29;20479;-79
2023/05/18 06:43:03;;;;;;;7.90;2.35;;;;;;;7.25;75.29;102220.41;4910188;29;20046;-80
2023/05/18 06:45:30;;;;;;;7.47;2.13;;;;;;;7.31;75.12;102217.97;4921198;29;20044;-79
2023/05/18 06:47:56;;;;;;;9.50;2.08;;;;;;;7.32;75.72;102217.13;4917914;29;20115;-83
2023/05/18 06:50:23;;;;;;;3.88;1.63;;;;;;;7.43;75.80;102218.34;4912327;29;20048;-79
2023/05/18 06:52:50;;;;;;;5.93;1.73;;;;;;;7.55;75.67;102217.81;4905212;29;20052;-80
2023/05/18 06:55:16;;;;;;;5.32;2.35;;;;;;;7.69;74.91;102213.00;4904214;29;20398;-81
2023/05/18 06:57:43;;;;;;;9.57;2.67;;;;;;;7.77;73.79;102211.47;4918309;29;20040;-80
2023/05/18 07:00:11;;;;;;;4.20;1.52;;;;;;;7.78;73.69;102210.63;4916996;29;20040;-80
2023/05/18 07:02:38;;;;;;;6.05;1.45;;;;;;;7.85;73.42;102219.50;4911662;29;20052;-80
2023/05/18 07:05:07;;;;;;;7.53;2.03;;;;;;;7.97;71.58;102220.69;4905317;29;20050;-80
2023/05/18 07:07:36;;;;;;;6.50;1.75;;;;;;;8.22;71.73;102219.59;4899898;29;20518;-81
2023/05/18 07:10:03;;;;;;;5.60;2.20;;;;;;;8.74;69.57;102220.06;4913511;29;20044;-80
2023/05/18 07:12:30;;;;;;;3.25;2.25;;;;;;;9.20;67.94;102215.88;4910120;29;20052;-79
2023/05/18 07:14:57;;;;;;;10.00;2.85;;;;;;;9.63;65.70;102217.63;4912504;29;20052;-80
2023/05/18 07:17:24;;;;;;;2.97;2.35;;;;;;;10.02;64.28;102216.66;4898834;29;20450;-80
2023/05/18 07:19:53;;;;;;;5.75;1.90;;;;;;;10.59;64.61;102221.16;4918771;29;20043;-82
2023/05/18 07:22:20;;;;;;;4.35;1.80;;;;;;;11.33;61.35;102215.22;4896943;29;20059;-80
2023/05/18 07:24:46;;;;;;;5.00;2.35;;;;;;;11.60;59.08;102206.81;4911947;29;20040;-79
2023/05/18 07:27:13;;;;;;;4.72;1.80;;;;;;;12.08;58.11;102215.25;4914707;29;20099;-81
2023/05/18 07:29:40;;;;;;;7.40;4.47;;;;;;;12.85;57.42;102210.63;4918774;29;20048;-80
2023/05/18 07:32:07;;;;;;;4.97;2.40;;;;;;;13.63;51.79;102209.28;4922682;29;20044;-81
2023/05/18 07:34:34;;;;;;;7.90;2.15;;;;;;;13.13;49.97;102208.16;4922964;29;20416;-81
2023/05/18 07:37:01;;;;;;;4.47;1.60;;;;;;;13.19;51.85;102210.84;4909450;29;20173;-84
2023/05/18 07:39:28;;;;;;;5.22;2.10;;;;;;;13.45;47.97;102212.72;4927773;29;20055;-81
2023/05/18 07:41:56;;;;;;;4.78;1.70;;;;;;;13.77;47.91;102217.22;4930751;29;20040;-85
2023/05/18 07:44:23;;;;;;;5.15;1.77;;;;;;;13.93;46.97;102214.63;4928047;29;20055;-81
2023/05/18 07:46:50;;;;;;;5.00;1.45;;;;;;;14.43;45.97;102205.91;4930105;29;20776;-81
2023/05/18 07:49:17;;;;;;;7.72;2.42;;;;;;;14.53;44.12;102215.53;4923647;29;20047;-82
2023/05/18 07:51:44;;;;;;;7.50;1.75;;;;;;;15.09;43.68;102207.59;4929819;29;20487;-82
2023/05/18 07:54:11;;;;;;;6.72;1.95;;;;;;;15.29;43.16;102211.91;4928322;29;20771;-82
2023/05/18 07:56:39;;;;;;;4.80;2.25;;;;;;;15.98;42.55;102200.16;4925973;29;20505;-85
2023/05/18 07:59:06;;;;;;;3.58;1.48;;;;;;;15.93;41.77;102204.59;4926326;29;20043;-84
2023/05/18 08:01:34;;;;;;;7.30;2.08;;;;;;;15.92;41.12;102200.19;4928030;29;20047;-80
2023/05/18 08:04:01;;;;;;;6.18;2.20;;;;;;;16.20;41.19;102207.06;4913795;29;20147;-81
2023/05/18 08:06:27;;;;;;;3.25;1.77;;;;;;;16.87;40.00;102196.75;4907704;29;20376;-81
2023/05/18 08:08:55;;;;;;;5.43;2.35;;;;;;;16.04;39.87;102203.63;4907636;29;20062;-84
2023/05/18 08:11:25;;;;;;;8.70;2.45;;;;;;;14.79;41.67;102216.44;4928929;29;20047;-84
2023/05/18 08:13:51;;;;;;;5.88;2.22;;;;;;;13.72;44.75;102203.16;4929096;29;20043;-80
2023/05/18 08:16:18;;;;;;;5.93;1.70;;;;;;;13.59;45.63;102204.88;4928547;29;20047;-81
2023/05/18 08:18:44;;;;;;;9.38;1.85;;;;;;;14.39;43.98;102212.03;4911867;29;20047;-82
2023/05/18 08:21:11;;;;;;;6.32;2.08;;;;;;;14.72;42.93;102207.69;4927722;29;20047;-80
2023/05/18 08:23:38;;;;;;;5.85;1.70;;;;;;;15.41;41.58;102217.16;4913771;29;20482;-80
2023/05/18 08:26:06;;;;;;;3.67;1.80;;;;;;;16.11;40.29;102206.22;4912449;29;20529;-80
2023/05/18 08:28:35;;;;;;;4.72;2.05;;;;;;;17.43;37.61;102203.19;4916672;29;20822;-80
2023/05/18 08:31:01;;;;;;;4.10;1.42;;;;;;;18.31;37.57;102194.00;4929423;29;20040;-81
2023/05/18 08:33:31;;;;;;;5.60;2.17;;;;;;;19.25;35.40;102192.25;4934305;28;20062;-79
2023/05/18 08:35:57;;;;;;;5.10;1.60;;;;;;;20.29;33.38;102185.50;4931808;29;20046;-79
2023/05/18 08:38:24;;;;;;;4.18;1.75;;;;;;;20.31;33.26;102180.13;4937173;28;20051;-80
2023/05/18 08:41:04;;;;;;;6.35;2.28;;;;;;;20.41;32.25;102180.78;4932540;29;20613;-83
2023/05/18 08:43:32;;;;;;;3.83;1.52;;;;;;;19.40;33.92;102182.22;4933104;28;20043;-81
2023/05/18 08:46:07;;;;;;;5.57;2.05;;;;;;;19.89;33.49;102174.97;4933650;29;20051;-86
2023/05/18 08:48:36;;;;;;;3.35;2.13;;;;;;;20.96;32.56;102163.34;4939114;29;20035;-84
2023/05/18 08:51:04;;;;;;;6.80;2.13;;;;;;;20.50;31.71;102173.41;4920200;29;20047;-86
2023/05/18 08:53:33;;;;;;;6.50;2.05;;;;;;;18.97;33.29;102170.75;4938641;28;20458;-81
2023/05/18 08:56:00;;;;;;;5.88;2.17;;;;;;;18.26;34.61;102172.84;4936611;29;20055;-86
2023/05/18 08:58:35;;;;;;;5.45;2.78;;;;;;;19.59;33.39;102169.41;4937718;29;20039;-82
2023/05/18 09:01:04;;;;;;;5.70;1.90;;;;;;;20.95;31.80;102164.25;4921579;29;20058;-81
2023/05/18 09:03:32;;;;;;;3.80;1.63;;;;;;;22.09;30.76;102170.56;4918299;28;20098;-80
2023/05/18 09:05:59;;;;;;;6.72;2.05;;;;;;;22.52;28.68;102167.41;4922123;29;20047;-83
2023/05/18 09:08:28;;;;;;;5.30;2.08;;;;;;;20.47;30.56;102170.84;4930154;28;20141;-82
2023/05/18 09:10:57;;;;;;;7.63;2.88;;;;;;;18.74;33.91;102179.09;4932494;29;20070;-81
2023/05/18 09:13:25;;;;;;;6.68;2.22;;;;;;;17.41;35.88;102166.16;4918373;28;20143;-87
2023/05/18 09:15:55;;;;;;;5.65;2.70;;;;;;;16.80;36.72;102165.97;4932172;29;20053;-82
2023/05/18 09:18:22;;;;;;;3.97;2.38;;;;;;;16.20;38.43;102170.06;4940486;28;20051;-82
2023/05/18 09:20:49;;;;;;;7.45;2.55;;;;;;;16.28;38.49;102163.81;4936952;29;20054;-85
2023/05/18 09:23:16;;;;;;;4.13;2.63;;;;;;;16.30;38.07;102165.56;4937662;28;20041;-83
2023/05/18 09:25:48;;;;;;;8.32;2.28;;;;;;;16.57;37.55;102165.31;4938858;29;20106;-83
2023/05/18 09:28:27;;;;;;;5.90;2.97;;;;;;;17.25;36.08;102157.53;4949946;28;20529;-85
2023/05/18 09:30:53;;;;;;;12.32;3.13;;;;;;;18.47;34.98;102161.03;4910462;29;20040;-83
2023/05/18 09:33:22;;;;;;;4.30;2.13;;;;;;;20.03;32.23;102153.38;4912231;29;20525;-85
2023/05/18 09:35:50;;;;;;;6.07;1.42;;;;;;;20.84;31.27;102141.53;4899252;29;20376;-83
2023/05/18 09:38:22;;;;;;;5.85;2.20;;;;;;;22.87;28.60;102143.91;4914311;29;20440;-85
2023/05/18 09:40:52;;;;;;;3.90;1.67;;;;;;;22.57;27.87;102149.44;4897751;29;20546;-81
2023/05/18 09:43:20;;;;;;;3.08;1.35;;;;;;;22.51;28.67;102141.63;4917453;29;20406;-81
2023/05/18 09:45:49;;;;;;;7.63;3.13;;;;;;;23.68;26.96;102131.00;4914247;29;20044;-81
2023/05/18 09:48:17;;;;;;;3.47;1.90;;;;;;;24.67;26.67;102127.72;4916246;29;20050;-86
2023/05/18 09:50:45;;;;;;;6.68;2.65;;;;;;;24.68;25.73;102129.47;4917521;29;20392;-81
2023/05/18 09:53:14;;;;;;;4.55;2.25;;;;;;;23.95;26.03;102143.25;4902118;29;20051;-86
2023/05/18 09:55:49;;;;;;;4.75;2.03;;;;;;;24.31;25.52;102139.06;4916385;29;20123;-81
2023/05/18 09:58:17;;;;;;;5.95;2.63;;;;;;;23.21;26.66;102139.97;4915048;29;20492;-81
2023/05/18 10:00:50;;;;;;;4.65;2.10;;;;;;;22.02;28.59;102144.16;4917524;29;20047;-81
2023/05/18 10:03:26;;;;;;;3.67;1.88;;;;;;;21.21;29.98;102148.44;4911196;29;20052;-84
2023/05/18 10:05:53;;;;;;;5.28;2.50;;;;;;;21.17;30.18;102147.63;4914538;29;20032;-85
2023/05/18 10:08:20;;;;;;;5.07;2.05;;;;;;;22.63;27.87;102142.06;4915973;29;20047;-81
2023/05/18 10:10:49;;;;;;;6.10;2.25;;;;;;;24.00;27.19;102132.38;4917771;29;20542;-83
2023/05/18 10:13:25;;;;;;;6.28;2.92;;;;;;;24.79;25.79;102128.13;4898411;29;20036;-82
2023/05/18 10:16:03;;;;;;;6.22;2.47;;;;;;;25.37;25.00;102135.25;4917666;29;20467;-81
2023/05/18 10:18:37;;;;;;;3.60;1.88;;;;;;;26.18;24.50;102130.38;4917189;29;20122;-82
2023/05/18 10:21:06;;;;;;;4.15;2.33;;;;;;;24.75;24.53;102138.09;4916543;29;20056;-82
2023/05/18 10:23:37;;;;;;;5.05;1.90;;;;;;;23.59;26.56;102134.91;4901166;29;20062;-85
2023/05/18 10:26:21;;;;;;;6.22;2.08;;;;;;;22.53;27.37;102135.31;4932753;29;20051;-85
2023/05/18 10:28:54;;;;;;;4.22;1.83;;;;;;;22.35;27.77;102139.47;4903398;29;20114;-82
2023/05/18 10:31:23;;;;;;;4.05;2.08;;;;;;;23.00;27.52;102136.28;4915864;29;20055;-79
2023/05/18 10:33:50;;;;;;;4.43;2.47;;;;;;;23.56;27.01;102135.06;4898832;29;20056;-83
2023/05/18 10:36:17;;;;;;;3.08;1.95;;;;;;;24.10;25.83;102130.16;4915463;29;20044;-79
2023/05/18 10:38:44;;;;;;;7.00;2.35;;;;;;;24.90;25.17;102123.09;4898972;29;20052;-81
2023/05/18 10:41:15;;;;;;;2.30;1.85;;;;;;;26.23;23.60;102120.25;4915571;29;20071;-81
2023/05/18 10:43:45;;;;;;;5.82;2.00;;;;;;;26.92;23.53;102117.53;4916060;29;20051;-85
2023/05/18 10:46:14;;;;;;;4.00;2.20;;;;;;;27.20;22.21;102116.88;4909630;29;20047;-83
2023/05/18 10:48:46;;;;;;;2.63;1.85;;;;;;;26.01;23.35;102111.53;4913807;29;20107;-81
2023/05/18 10:51:14;;;;;;;4.70;2.53;;;;;;;25.09;24.51;102113.28;4916914;29;20048;-87
2023/05/18 10:53:43;;;;;;;5.40;2.47;;;;;;;26.11;23.39;102112.84;4901707;29;20043;-82
2023/05/18 10:56:10;;;;;;;4.55;2.67;;;;;;;26.65;21.96;102120.75;4913995;29;20123;-86
2023/05/18 10:58:38;;;;;;;2.60;1.92;;;;;;;27.85;21.62;102105.09;4917000;29;20043;-83
2023/05/18 11:01:09;;;;;;;5.25;2.55;;;;;;;29.11;21.16;102100.16;4895733;29;20045;-83
2023/05/18 11:03:39;;;;;;;5.63;2.00;;;;;;;30.30;20.01;102095.78;4916654;29;20044;-82
2023/05/18 11:06:09;;;;;;;7.22;2.55;;;;;;;30.62;19.02;102092.66;4917093;29;20047;-81
2023/05/18 11:08:47;;;;;;;6.72;2.50;;;;;;;30.58;19.05;102093.84;4925519;29;20036;-82
2023/05/18 11:11:15;;;;;;;4.88;2.28;;;;;;;29.42;20.14;102096.31;4914616;29;20090;-86
2023/05/18 11:13:49;;;;;;;4.97;2.60;;;;;;;27.73;21.44;102089.72;4916574;29;20118;-82
2023/05/18 11:16:17;;;;;;;5.90;1.95;;;;;;;25.37;23.87;102103.97;4916002;29;20056;-83
2023/05/18 11:18:49;;;;;;;2.63;2.40;;;;;;;23.46;25.69;102103.31;4916196;29;20063;-83
2023/05/18 11:21:53;;;;;;;4.07;2.40;;;;;;;21.98;26.85;102103.41;4894209;29;20071;-84
2023/05/18 11:24:24;;;;;;;3.05;2.67;;;;;;;22.38;26.71;102094.03;4919504;29;20094;-79
2023/05/18 11:26:57;;;;;;;3.92;2.17;;;;;;;24.57;24.99;102087.06;4895525;29;20147;-82
2023/05/18 11:29:40;;;;;;;4.95;2.25;;;;;;;25.61;23.38;102090.28;4922757;29;20066;-82
2023/05/18 11:32:36;;;;;;;5.40;2.55;;;;;;;24.39;25.09;102088.78;4927711;29;20048;-82
2023/05/18 11:35:07;;;;;;;7.05;2.92;;;;;;;24.49;24.81;102091.91;4918118;29;20058;-82
2023/05/18 11:37:40;;;;;;;6.40;2.63;;;;;;;24.19;25.03;102086.09;4929652;29;20046;-83